createdAt,value
2019-02-21T00:01:57.300Z,25.40
2019-02-21T00:04:29.804Z,24.53
2019-02-21T00:07:04.991Z,36.93
2019-02-21T00:09:36.626Z,28.23
2019-02-21T00:12:07.342Z,28.57
2019-02-21T00:14:39.218Z,26.47
2019-02-21T00:17:08.906Z,26.60
2019-02-21T00:19:39.180Z,28.87
2019-02-21T00:22:08.749Z,28.17
2019-02-21T00:24:40.186Z,27.53
2019-02-21T00:27:10.103Z,32.40
2019-02-21T00:29:39.743Z,25.33
2019-02-21T00:32:11.336Z,25.50
2019-02-21T00:34:42.144Z,26.33
2019-02-21T00:37:12.498Z,28.27
2019-02-21T00:39:43.025Z,25.40
2019-02-21T00:42:15.082Z,21.60
2019-02-21T00:44:49.563Z,25.50
2019-02-21T00:47:21.157Z,24.70
2019-02-21T00:49:52.559Z,34.77
2019-02-21T00:52:24.209Z,41.73
2019-02-21T00:54:55.296Z,31.67
2019-02-21T00:57:28.193Z,33.17
2019-02-21T00:59:59.018Z,31.33
2019-02-21T01:02:29.666Z,24.00
2019-02-21T01:04:59.915Z,29.57
2019-02-21T01:07:30.118Z,25.70
2019-02-21T01:10:00.734Z,33.80
2019-02-21T01:12:31.678Z,28.27
2019-02-21T01:15:01.921Z,25.23
2019-02-21T01:17:35.448Z,25.53
2019-02-21T01:20:07.901Z,26.48
2019-02-21T01:22:39.657Z,29.33
2019-02-21T01:25:11.351Z,23.90
2019-02-21T01:27:46.053Z,23.77
2019-02-21T01:30:16.260Z,23.27
2019-02-21T01:32:47.232Z,26.43
2019-02-21T01:35:16.922Z,24.57
2019-02-21T01:37:50.166Z,24.90
2019-02-21T01:40:22.649Z,26.33
2019-02-21T01:42:56.210Z,28.77
2019-02-21T01:45:27.061Z,26.77
2019-02-21T01:47:58.160Z,24.07
2019-02-21T01:50:31.605Z,23.33
2019-02-21T01:53:02.532Z,27.30
2019-02-21T01:55:34.286Z,24.83
2019-02-21T01:58:05.628Z,34.40
2019-02-21T02:00:36.196Z,43.63
2019-02-21T02:03:07.012Z,45.87
2019-02-21T02:05:38.883Z,44.43
2019-02-21T02:08:10.250Z,36.57
2019-02-21T02:10:41.640Z,37.90
2019-02-21T02:13:23.777Z,31.60
2019-02-21T02:15:47.743Z,32.27
2019-02-21T02:18:18.202Z,29.63
2019-02-21T02:20:47.895Z,30.03
2019-02-21T02:23:17.732Z,27.97
2019-02-21T02:26:10.669Z,26.30
2019-02-21T02:28:42.953Z,30.27
2019-02-21T02:31:22.026Z,31.40
2019-02-21T02:33:44.540Z,26.40
2019-02-21T02:36:15.159Z,29.53
2019-02-21T02:38:46.453Z,25.97
2019-02-21T02:41:17.288Z,32.03
2019-02-21T02:43:48.135Z,27.93
2019-02-21T02:46:19.058Z,25.08
2019-02-21T02:48:50.435Z,26.13
2019-02-21T02:51:20.193Z,30.50
2019-02-21T02:53:50.487Z,29.30
2019-02-21T02:56:20.136Z,32.13
2019-02-21T02:58:50.494Z,23.67
2019-02-21T03:01:34.352Z,31.57
2019-02-21T03:03:55.470Z,30.10
2019-02-21T03:06:25.932Z,25.47
2019-02-21T03:08:58.115Z,26.70
2019-02-21T03:11:28.863Z,29.60
2019-02-21T03:14:00.307Z,27.87
2019-02-21T03:16:32.493Z,33.17
2019-02-21T03:19:03.015Z,27.83
2019-02-21T03:21:33.346Z,30.27
2019-02-21T03:24:04.388Z,29.23
2019-02-21T03:26:36.911Z,29.20
2019-02-21T03:29:08.868Z,30.63
2019-02-21T03:31:53.339Z,26.40
2019-02-21T03:34:13.381Z,28.90
2019-02-21T03:36:44.734Z,27.00
2019-02-21T03:39:14.821Z,29.98
2019-02-21T03:41:46.675Z,26.47
2019-02-21T03:44:18.356Z,28.03
2019-02-21T03:46:49.792Z,28.63
2019-02-21T03:49:20.333Z,29.83
2019-02-21T03:51:50.745Z,29.97
2019-02-21T03:54:21.606Z,28.13
2019-02-21T03:56:51.256Z,28.93
2019-02-21T03:59:22.392Z,26.00
2019-02-21T04:02:04.521Z,32.70
2019-02-21T04:04:25.651Z,29.70
2019-02-21T04:06:56.798Z,28.10
2019-02-21T04:09:28.028Z,24.23
2019-02-21T04:11:59.273Z,31.53
2019-02-21T04:14:30.774Z,31.53
2019-02-21T04:17:01.975Z,30.67
2019-02-21T04:19:34.419Z,27.43
2019-02-21T04:22:05.260Z,28.13
2019-02-21T04:24:36.153Z,28.37
2019-02-21T04:27:09.784Z,24.03
2019-02-21T04:29:40.883Z,32.70
2019-02-21T04:32:17.073Z,24.92
2019-02-21T04:34:45.506Z,28.17
2019-02-21T04:37:15.913Z,23.50
2019-02-21T04:39:47.258Z,26.13
2019-02-21T04:42:18.176Z,24.50
2019-02-21T04:44:48.887Z,31.27
2019-02-21T04:47:20.452Z,28.27
2019-02-21T04:49:52.323Z,25.77
2019-02-21T04:52:22.564Z,28.10
2019-02-21T04:54:53.479Z,26.57
2019-02-21T04:57:23.983Z,30.72
2019-02-21T04:59:54.474Z,27.77
2019-02-21T05:02:28.850Z,29.77
2019-02-21T05:04:55.971Z,26.27
2019-02-21T05:07:27.923Z,26.93
2019-02-21T05:09:58.529Z,29.40
2019-02-21T05:12:30.096Z,28.77
2019-02-21T05:15:00.735Z,25.93
2019-02-21T05:17:31.195Z,25.80
2019-02-21T05:20:02.444Z,27.67
2019-02-21T05:22:34.412Z,33.90
2019-02-21T05:25:06.411Z,26.33
2019-02-21T05:27:36.995Z,28.70
2019-02-21T05:30:09.296Z,29.07
2019-02-21T05:32:45.038Z,30.80
2019-02-21T05:35:17.384Z,25.47
2019-02-21T05:37:48.638Z,29.27
2019-02-21T05:40:46.399Z,31.73
2019-02-21T05:43:31.450Z,30.27
2019-02-21T05:46:09.060Z,25.60
2019-02-21T05:48:46.763Z,26.47
2019-02-21T05:51:25.963Z,26.23
2019-02-21T05:54:17.385Z,32.40
2019-02-21T05:56:55.282Z,27.33
2019-02-21T05:59:31.013Z,30.20
2019-02-21T06:02:20.764Z,29.10
2019-02-21T06:04:59.075Z,24.30
2019-02-21T06:07:48.887Z,26.73
2019-02-21T06:10:21.197Z,24.03
2019-02-21T06:12:52.540Z,32.53
2019-02-21T06:15:27.792Z,25.80
2019-02-21T06:18:17.754Z,31.20
2019-02-21T06:20:48.947Z,26.03
2019-02-21T06:23:39.359Z,25.00
2019-02-21T06:26:14.402Z,30.73
2019-02-21T06:29:02.648Z,31.43
2019-02-21T06:31:34.344Z,28.77
2019-02-21T06:34:07.086Z,32.27
2019-02-21T06:36:38.662Z,30.13
2019-02-21T06:39:12.887Z,30.63
2019-02-21T06:41:42.888Z,32.60
2019-02-21T06:44:14.014Z,34.93
2019-02-21T06:46:44.909Z,30.03
2019-02-21T06:49:17.006Z,32.20
2019-02-21T06:51:48.350Z,30.47
2019-02-21T06:54:18.582Z,39.53
2019-02-21T06:56:49.510Z,27.83
2019-02-21T06:59:20.344Z,36.83
2019-02-21T07:01:51.859Z,27.87
2019-02-21T07:04:23.659Z,30.52
2019-02-21T07:06:57.922Z,29.60
2019-02-21T07:09:32.041Z,27.13
2019-02-21T07:12:02.317Z,37.33
2019-02-21T07:14:34.485Z,33.30
2019-02-21T07:17:05.243Z,29.40
2019-02-21T07:19:36.505Z,27.47
2019-02-21T07:22:17.757Z,31.70
2019-02-21T07:24:46.369Z,27.27
2019-02-21T07:27:18.173Z,31.83
2019-02-21T07:29:50.901Z,30.00
2019-02-21T07:32:21.663Z,36.43
2019-02-21T07:34:52.700Z,27.97
2019-02-21T07:37:23.616Z,37.80
2019-02-21T07:39:55.131Z,27.00
2019-02-21T07:42:25.976Z,33.40
2019-02-21T07:44:59.685Z,32.57
2019-02-21T07:47:33.804Z,34.10
2019-02-21T07:50:05.306Z,32.17
2019-02-21T07:52:35.789Z,30.33
2019-02-21T07:55:10.560Z,34.90
2019-02-21T07:57:41.932Z,26.60
2019-02-21T08:00:17.048Z,32.20
2019-02-21T08:02:49.455Z,27.30
2019-02-21T08:05:22.975Z,28.07
2019-02-21T08:07:55.400Z,31.53
2019-02-21T08:10:33.185Z,28.43
2019-02-21T08:12:58.519Z,31.63
2019-02-21T08:15:29.910Z,29.73
2019-02-21T08:20:37.087Z,31.77
2019-02-21T08:23:06.375Z,35.73
2019-02-21T08:25:39.607Z,23.63
2019-02-21T08:28:09.714Z,26.47
2019-02-21T08:30:43.634Z,29.53
2019-02-21T08:33:15.820Z,26.02
2019-02-21T08:35:45.609Z,29.23
2019-02-21T08:38:17.666Z,27.37
2019-02-21T08:40:48.411Z,26.60
2019-02-21T08:43:21.992Z,26.05
2019-02-21T08:45:53.388Z,24.60
2019-02-21T08:48:25.444Z,27.87
2019-02-21T08:50:56.102Z,25.87
2019-02-21T08:53:28.178Z,25.70
2019-02-21T08:56:00.825Z,27.57
2019-02-21T08:58:32.056Z,28.83
2019-02-21T09:01:05.582Z,32.43
2019-02-21T09:03:37.440Z,28.60
2019-02-21T09:06:07.831Z,27.73
2019-02-21T09:08:44.855Z,29.27
2019-02-21T09:11:19.421Z,27.32
2019-02-21T09:13:52.677Z,25.60
2019-02-21T09:16:27.066Z,31.00
2019-02-21T09:18:58.508Z,29.40
2019-02-21T09:21:30.497Z,29.07
2019-02-21T09:24:01.388Z,25.60
2019-02-21T09:26:34.641Z,31.15
2019-02-21T09:29:05.461Z,30.53
2019-02-21T09:31:36.796Z,30.17
2019-02-21T09:34:20.627Z,26.73
2019-02-21T09:36:41.168Z,29.83
2019-02-21T09:39:11.571Z,25.30
2019-02-21T09:41:42.518Z,25.53
2019-02-21T09:44:13.497Z,23.77
2019-02-21T09:46:43.050Z,33.00
2019-02-21T09:49:14.676Z,27.67
2019-02-21T09:51:46.003Z,32.10
2019-02-21T09:54:19.083Z,24.20
2019-02-21T09:56:53.301Z,28.60
2019-02-21T09:59:25.284Z,32.55
2019-02-21T10:01:57.687Z,30.77
2019-02-21T10:04:32.182Z,25.17
2019-02-21T10:07:02.251Z,27.87
2019-02-21T10:09:35.605Z,32.93
2019-02-21T10:12:07.563Z,27.80
2019-02-21T10:14:41.015Z,31.37
2019-02-21T10:17:11.294Z,32.58
2019-02-21T10:19:42.444Z,28.77
2019-02-21T10:22:13.382Z,31.33
2019-02-21T10:24:44.903Z,35.00
2019-02-21T10:27:17.696Z,29.63
2019-02-21T10:29:49.054Z,36.83
2019-02-21T10:32:22.383Z,39.00
2019-02-21T10:34:53.815Z,38.07
2019-02-21T10:37:26.435Z,34.30
2019-02-21T10:39:56.527Z,30.20
2019-02-21T10:42:28.007Z,29.10
2019-02-21T10:44:59.925Z,35.47
2019-02-21T10:47:33.042Z,32.80
2019-02-21T10:50:05.081Z,33.70
2019-02-21T10:52:38.422Z,34.90
2019-02-21T10:55:29.197Z,35.03
2019-02-21T10:58:01.066Z,57.20
2019-02-21T11:00:31.383Z,36.87
2019-02-21T11:03:01.521Z,32.80
2019-02-21T11:05:36.528Z,36.83
2019-02-21T11:08:08.371Z,38.13
2019-02-21T11:10:42.378Z,40.00
2019-02-21T11:13:15.173Z,36.83
2019-02-21T11:15:45.483Z,43.20
2019-02-21T11:18:15.839Z,54.17
2019-02-21T11:20:47.965Z,39.40
2019-02-21T11:23:18.455Z,35.33
2019-02-21T11:25:48.362Z,34.93
2019-02-21T11:28:18.794Z,37.15
2019-02-21T11:30:48.978Z,36.20
2019-02-21T11:33:21.367Z,40.95
2019-02-21T11:35:52.158Z,43.50
2019-02-21T11:38:25.719Z,44.10
2019-02-21T11:40:57.132Z,37.30
2019-02-21T11:43:30.008Z,40.50
2019-02-21T11:46:04.254Z,36.57
2019-02-21T11:48:35.488Z,35.60
2019-02-21T11:51:27.373Z,41.83
2019-02-21T11:53:58.026Z,44.83
2019-02-21T11:56:30.190Z,40.83
2019-02-21T11:59:01.191Z,45.33
2019-02-21T12:01:31.515Z,41.93
2019-02-21T12:04:02.336Z,43.07
2019-02-21T12:06:32.366Z,38.23
2019-02-21T12:09:02.951Z,37.00
2019-02-21T12:11:33.416Z,41.67
2019-02-21T12:14:03.008Z,39.50
2019-02-21T12:16:33.223Z,37.20
2019-02-21T12:19:04.563Z,37.27
2019-02-21T12:21:37.806Z,36.90
2019-02-21T12:24:09.844Z,36.90
2019-02-21T12:26:42.183Z,38.00
2019-02-21T12:29:12.168Z,37.03
2019-02-21T12:31:42.545Z,39.30
2019-02-21T12:34:13.519Z,32.37
2019-02-21T12:36:45.526Z,35.73
2019-02-21T12:39:16.540Z,43.70
2019-02-21T12:41:48.537Z,41.30
2019-02-21T12:44:20.800Z,33.90
2019-02-21T12:46:51.754Z,39.63
2019-02-21T12:49:23.276Z,36.58
2019-02-21T12:51:52.564Z,29.33
2019-02-21T12:54:24.796Z,30.57
2019-02-21T12:56:55.923Z,35.03
2019-02-21T12:59:26.232Z,28.27
2019-02-21T13:01:58.941Z,28.23
2019-02-21T13:04:29.864Z,30.17
2019-02-21T13:07:04.741Z,30.70
2019-02-21T13:09:35.228Z,30.47
2019-02-21T13:12:06.554Z,33.35
2019-02-21T13:14:39.367Z,32.70
2019-02-21T13:17:11.611Z,30.23
2019-02-21T13:19:42.027Z,29.10
2019-02-21T13:22:17.202Z,37.47
2019-02-21T13:24:49.427Z,34.83
2019-02-21T13:27:20.828Z,31.10
2019-02-21T13:29:54.481Z,34.40
2019-02-21T13:32:25.386Z,36.80
2019-02-21T13:34:56.392Z,39.17
2019-02-21T13:37:29.325Z,35.57
2019-02-21T13:40:01.529Z,41.93
2019-02-21T13:42:33.539Z,40.60
2019-02-21T13:45:03.194Z,42.83
2019-02-21T13:47:35.547Z,42.63
2019-02-21T13:50:09.414Z,44.42
2019-02-21T13:52:39.684Z,40.93
2019-02-21T13:55:11.025Z,44.80
2019-02-21T13:57:40.646Z,42.13
2019-02-21T14:00:14.635Z,44.58
2019-02-21T14:02:47.754Z,41.03
2019-02-21T14:05:19.259Z,43.08
2019-02-21T14:07:51.343Z,44.27
2019-02-21T14:10:20.970Z,44.73
2019-02-21T14:12:52.348Z,48.63
2019-02-21T14:15:26.535Z,48.47
2019-02-21T14:17:56.799Z,55.70
2019-02-21T14:20:25.783Z,44.37
2019-02-21T14:22:57.264Z,46.23
2019-02-21T14:25:40.036Z,46.23
2019-02-21T14:28:02.524Z,40.67
2019-02-21T14:30:32.091Z,46.30
2019-02-21T14:33:03.012Z,46.33
2019-02-21T14:35:32.613Z,45.83
2019-02-21T14:38:03.883Z,47.80
2019-02-21T14:40:37.350Z,41.87
2019-02-21T14:43:09.987Z,41.43
2019-02-21T14:45:42.846Z,40.47
2019-02-21T14:48:13.948Z,42.73
2019-02-21T14:50:46.903Z,38.63
2019-02-21T14:53:19.786Z,47.30
2019-02-21T14:55:51.090Z,44.47
2019-02-21T14:58:20.779Z,47.95
2019-02-21T15:00:52.252Z,53.60
2019-02-21T15:03:24.181Z,50.05
2019-02-21T15:05:58.011Z,51.20
2019-02-21T15:08:33.084Z,51.33
2019-02-21T15:11:05.083Z,54.63
2019-02-21T15:13:38.499Z,55.57
2019-02-21T15:16:11.064Z,55.73
2019-02-21T15:18:41.846Z,52.97
2019-02-21T15:21:11.711Z,54.57
2019-02-21T15:23:43.084Z,62.70
2019-02-21T15:26:15.175Z,49.23
2019-02-21T15:28:45.586Z,63.20
2019-02-21T15:31:15.993Z,64.87
2019-02-21T15:33:47.853Z,63.23
2019-02-21T15:36:18.083Z,57.40
2019-02-21T15:41:21.115Z,63.67
2019-02-21T15:43:53.436Z,68.80
2019-02-21T15:46:25.459Z,56.77
2019-02-21T15:48:57.311Z,57.77
2019-02-21T15:51:28.371Z,63.13
2019-02-21T15:53:58.116Z,72.03
2019-02-21T15:56:28.903Z,78.00
2019-02-21T15:59:00.298Z,62.37
2019-02-21T16:01:31.988Z,77.90
2019-02-21T16:04:02.426Z,70.07
2019-02-21T16:06:33.203Z,71.67
2019-02-21T16:09:15.909Z,82.07
2019-02-21T16:11:38.532Z,81.97
2019-02-21T16:14:10.485Z,67.53
2019-02-21T16:16:41.807Z,72.00
2019-02-21T16:19:12.148Z,72.53
2019-02-21T16:21:44.363Z,77.27
2019-02-21T16:24:15.149Z,95.23
2019-02-21T16:26:46.885Z,96.10
2019-02-21T16:29:19.675Z,124.07
2019-02-21T16:31:50.060Z,78.80
2019-02-21T16:34:20.988Z,77.33
2019-02-21T16:37:01.866Z,108.97
2019-02-21T16:39:42.552Z,75.13
2019-02-21T16:42:13.877Z,80.72
2019-02-21T16:44:44.014Z,81.77
2019-02-21T16:47:14.435Z,81.73
2019-02-21T16:49:45.427Z,93.93
2019-02-21T16:52:18.673Z,76.95
2019-02-21T16:54:50.268Z,77.30
2019-02-21T16:59:57.471Z,64.00
2019-02-21T17:02:27.931Z,73.43
2019-02-21T17:05:05.523Z,56.33
2019-02-21T17:07:36.551Z,62.30
2019-02-21T17:10:10.615Z,57.03
2019-02-21T17:12:42.641Z,56.07
2019-02-21T17:15:15.462Z,63.00
2019-02-21T17:17:47.348Z,48.33
2019-02-21T17:20:20.598Z,50.70
2019-02-21T17:22:52.182Z,45.47
2019-02-21T17:25:23.248Z,42.38
2019-02-21T17:27:55.953Z,42.80
2019-02-21T17:30:26.255Z,50.03
2019-02-21T17:32:58.578Z,45.33
2019-02-21T17:35:31.278Z,47.40
2019-02-21T17:38:04.486Z,47.97
2019-02-21T17:40:34.924Z,42.97
2019-02-21T17:43:05.316Z,50.30
2019-02-21T17:45:35.608Z,55.40
2019-02-21T17:48:07.785Z,49.60
2019-02-21T17:50:38.104Z,45.30
2019-02-21T17:53:09.585Z,44.07
2019-02-21T17:55:39.782Z,44.60
2019-02-21T17:58:11.604Z,45.60
2019-02-21T18:00:42.363Z,64.17
2019-02-21T18:03:16.929Z,53.25
2019-02-21T18:05:47.155Z,51.63
2019-02-21T18:08:17.250Z,42.33
2019-02-21T18:10:46.908Z,43.47
2019-02-21T18:13:19.320Z,44.80
2019-02-21T18:15:50.924Z,43.50
2019-02-21T18:18:21.652Z,41.73
2019-02-21T18:23:23.178Z,47.53
2019-02-21T18:25:58.546Z,44.37
2019-02-21T18:28:28.821Z,44.53
2019-02-21T18:30:58.616Z,47.43
2019-02-21T18:33:29.883Z,44.50
2019-02-21T18:36:00.224Z,47.47
2019-02-21T18:38:32.093Z,45.70
2019-02-21T18:41:03.037Z,41.50
2019-02-21T18:43:34.008Z,43.60
2019-02-21T18:46:03.795Z,42.77
2019-02-21T18:48:35.850Z,42.37
2019-02-21T18:51:07.803Z,46.87
2019-02-21T18:53:41.568Z,43.47
2019-02-21T18:56:11.977Z,49.50
2019-02-21T18:58:43.843Z,43.17
2019-02-21T19:01:17.808Z,43.87
2019-02-21T19:03:50.643Z,41.17
2019-02-21T19:06:22.979Z,45.60
2019-02-21T19:08:54.679Z,39.43
2019-02-21T19:11:28.510Z,40.63
2019-02-21T19:13:59.763Z,38.33
2019-02-21T19:16:31.206Z,36.80
2019-02-21T19:19:02.556Z,35.60
2019-02-21T19:21:33.817Z,40.13
2019-02-21T19:26:39.328Z,33.73
2019-02-21T19:29:10.964Z,37.80
2019-02-21T19:32:01.518Z,30.20
2019-02-21T19:34:30.276Z,35.80
2019-02-21T19:37:00.978Z,38.27
2019-02-21T19:39:31.851Z,37.90
2019-02-21T19:42:04.096Z,39.50
2019-02-21T19:44:36.173Z,35.40
2019-02-21T19:47:06.361Z,43.03
2019-02-21T19:49:36.757Z,36.13
2019-02-21T19:52:07.655Z,37.33
2019-02-21T19:54:39.236Z,36.63
2019-02-21T19:57:10.812Z,40.37
2019-02-21T19:59:42.947Z,37.90
2019-02-21T20:02:12.609Z,38.40
2019-02-21T20:04:44.422Z,37.00
2019-02-21T20:07:16.782Z,38.53
2019-02-21T20:09:47.526Z,35.63
2019-02-21T20:12:18.313Z,42.17
2019-02-21T20:14:49.823Z,40.53
2019-02-21T20:17:21.030Z,38.87
2019-02-21T20:19:55.777Z,42.57
2019-02-21T20:22:28.675Z,41.57
2019-02-21T20:24:59.500Z,41.93
2019-02-21T20:27:29.202Z,41.30
2019-02-21T20:30:00.666Z,47.70
2019-02-21T20:32:31.420Z,45.90
2019-02-21T20:35:02.799Z,47.13
2019-02-21T20:37:34.763Z,44.23
2019-02-21T20:40:09.299Z,50.63
2019-02-21T20:42:39.304Z,46.20
2019-02-21T20:45:12.415Z,49.77
2019-02-21T20:47:42.264Z,42.83
2019-02-21T20:50:14.523Z,48.87
2019-02-21T20:52:44.883Z,49.80
2019-02-21T20:55:14.659Z,48.20
2019-02-21T20:57:43.488Z,46.03
2019-02-21T21:00:20.047Z,52.67
2019-02-21T21:02:50.804Z,48.13
2019-02-21T21:05:22.851Z,57.40
2019-02-21T21:07:53.544Z,55.80
2019-02-21T21:10:24.256Z,56.40
2019-02-21T21:12:54.462Z,54.73
2019-02-21T21:15:24.736Z,59.30
2019-02-21T21:17:58.520Z,50.53
2019-02-21T21:20:29.139Z,51.95
2019-02-21T21:22:59.360Z,56.93
2019-02-21T21:25:31.994Z,54.47
2019-02-21T21:28:02.635Z,64.07
2019-02-21T21:30:37.023Z,66.40
2019-02-21T21:33:07.310Z,62.20
2019-02-21T21:35:39.182Z,61.67
2019-02-21T21:38:10.870Z,64.70
2019-02-21T21:40:42.373Z,60.07
2019-02-21T21:43:17.177Z,66.20
2019-02-21T21:45:48.442Z,67.57
2019-02-21T21:48:18.834Z,64.10
2019-02-21T21:50:51.682Z,65.10
2019-02-21T21:53:23.676Z,64.87
2019-02-21T21:55:54.826Z,71.90
2019-02-21T21:58:26.117Z,72.70
2019-02-21T22:00:56.844Z,75.13
2019-02-21T22:03:28.183Z,71.87
2019-02-21T22:05:59.423Z,82.00
2019-02-21T22:08:31.245Z,81.17
2019-02-21T22:11:02.935Z,85.20
2019-02-21T22:13:36.084Z,79.87
2019-02-21T22:16:08.947Z,80.60
2019-02-21T22:18:39.578Z,91.27
2019-02-21T22:21:09.851Z,92.83
2019-02-21T22:23:43.556Z,98.37
2019-02-21T22:26:14.391Z,89.90
2019-02-21T22:28:46.275Z,98.93
2019-02-21T22:31:18.682Z,108.67
2019-02-21T22:33:52.617Z,107.13
2019-02-21T22:36:25.615Z,97.82
2019-02-21T22:38:57.098Z,107.80
2019-02-21T22:41:29.207Z,117.00
2019-02-21T22:43:59.959Z,104.80
2019-02-21T22:46:33.149Z,118.87
2019-02-21T22:49:04.708Z,103.77
2019-02-21T22:51:37.031Z,124.23
2019-02-21T22:54:07.157Z,100.97
2019-02-21T22:56:40.726Z,104.80
2019-02-21T22:59:13.908Z,105.87
2019-02-21T23:01:46.036Z,106.07
2019-02-21T23:04:18.634Z,128.62
2019-02-21T23:07:03.911Z,108.73
2019-02-21T23:09:34.204Z,126.20
2019-02-21T23:12:05.591Z,98.50
2019-02-21T23:14:35.232Z,101.67
2019-02-21T23:17:05.910Z,114.93
2019-02-21T23:19:36.195Z,112.27
2019-02-21T23:22:06.558Z,115.97
2019-02-21T23:24:37.407Z,115.33
2019-02-21T23:27:09.312Z,98.20
2019-02-21T23:29:47.382Z,108.03
2019-02-21T23:32:18.127Z,99.92
2019-02-21T23:34:47.811Z,106.40
2019-02-21T23:37:18.168Z,117.30
2019-02-21T23:39:49.773Z,98.80
2019-02-21T23:42:21.110Z,92.43
2019-02-21T23:44:50.757Z,87.50
2019-02-21T23:47:21.086Z,95.10
2019-02-21T23:49:52.811Z,105.10
2019-02-21T23:52:21.857Z,86.10
2019-02-21T23:54:52.195Z,86.57
2019-02-21T23:57:23.370Z,73.97
2019-02-21T23:59:54.737Z,75.70
